Time;durP1;ratioP1;P1;durP2;ratioP2;P2;SDS_P1;SDS_P2;PMS_P1;PMS_P2;Temp;Humidity;BMP_temperature;BMP_pressure;BME280_temperature;BME280_humidity;BME280_pressure;Samples;Min_cycle;Max_cycle;Signal;HPM_P1;HPM_P2
2022/02/19 00:00:26;;;;;;;1.20;1.00;;;18.20;51.50;;;;;;4979436;28;20614;-80
2022/02/19 00:02:53;;;;;;;1.42;1.08;;;18.20;51.60;;;;;;4979458;28;20503;-80
2022/02/19 00:05:20;;;;;;;1.63;1.20;;;18.20;51.50;;;;;;4979410;28;20633;-80
2022/02/19 00:07:46;;;;;;;2.03;1.00;;;18.20;51.60;;;;;;4979373;28;20210;-80
2022/02/19 00:10:13;;;;;;;2.92;1.15;;;18.20;51.60;;;;;;4979434;28;20210;-80
2022/02/19 00:12:40;;;;;;;1.38;1.10;;;18.20;51.70;;;;;;4999016;28;20192;-80
2022/02/19 00:15:07;;;;;;;1.50;1.00;;;18.20;51.60;;;;;;5016954;28;20159;-80
2022/02/19 00:17:33;;;;;;;1.63;1.23;;;18.20;51.70;;;;;;4999321;28;20194;-81
2022/02/19 00:20:00;;;;;;;2.00;1.33;;;18.20;51.60;;;;;;5016796;28;20160;-80
2022/02/19 00:22:27;;;;;;;1.67;1.30;;;18.20;51.70;;;;;;4999324;28;20206;-80
2022/02/19 00:24:53;;;;;;;1.45;1.30;;;18.20;51.70;;;;;;4982989;28;20163;-80
2022/02/19 00:27:19;;;;;;;1.30;0.95;;;18.20;51.70;;;;;;4999258;28;20606;-80
2022/02/19 00:29:45;;;;;;;2.55;1.17;;;18.20;52.00;;;;;;4982888;28;20649;-80
2022/02/19 00:32:11;;;;;;;1.10;1.00;;;18.20;51.90;;;;;;4999306;28;20233;-80
2022/02/19 00:34:37;;;;;;;2.65;1.20;;;18.10;51.70;;;;;;4982644;28;20175;-80
2022/02/19 00:37:04;;;;;;;1.60;1.10;;;18.20;51.90;;;;;;4998802;28;20187;-80
2022/02/19 00:39:30;;;;;;;1.42;1.08;;;18.20;51.70;;;;;;4999369;28;20603;-80
2022/02/19 00:41:56;;;;;;;1.20;1.00;;;18.20;51.50;;;;;;4998946;28;20183;-80
2022/02/19 00:44:24;;;;;;;2.75;1.23;;;18.20;51.70;;;;;;4999272;28;20538;-80
2022/02/19 00:46:50;;;;;;;1.65;1.02;;;18.10;51.90;;;;;;4982632;28;20640;-80
2022/02/19 00:49:16;;;;;;;1.70;1.27;;;18.10;51.90;;;;;;4982402;28;20167;-80
2022/02/19 00:51:42;;;;;;;2.15;1.17;;;18.10;51.90;;;;;;4998904;28;20528;-80
2022/02/19 00:54:08;;;;;;;2.55;1.15;;;18.10;52.00;;;;;;4982348;28;20206;-80
2022/02/19 00:56:33;;;;;;;1.92;1.00;;;18.10;52.10;;;;;;4998596;28;20163;-81
2022/02/19 00:58:59;;;;;;;1.77;1.13;;;18.10;51.90;;;;;;4982401;28;20250;-80
2022/02/19 01:01:24;;;;;;;1.45;1.00;;;18.10;52.10;;;;;;4998814;28;20221;-81
2022/02/19 01:03:52;;;;;;;1.90;1.05;;;18.00;52.10;;;;;;4998499;28;20242;-81
2022/02/19 01:06:19;;;;;;;1.25;0.93;;;18.10;52.00;;;;;;4998711;28;20238;-80
2022/02/19 01:08:46;;;;;;;2.42;1.30;;;18.10;51.90;;;;;;4998345;28;20187;-80
2022/02/19 01:11:12;;;;;;;1.73;1.00;;;18.10;52.10;;;;;;4998695;28;20152;-80
2022/02/19 01:13:38;;;;;;;1.40;0.90;;;18.10;52.10;;;;;;4998186;28;20160;-81
2022/02/19 01:16:04;;;;;;;1.20;0.98;;;18.10;52.20;;;;;;4982104;28;20174;-80
2022/02/19 01:18:30;;;;;;;1.83;1.20;;;18.10;52.20;;;;;;4981915;28;20199;-80
2022/02/19 01:20:56;;;;;;;1.50;1.40;;;18.10;52.30;;;;;;4998228;28;20622;-80
2022/02/19 01:23:22;;;;;;;1.42;1.08;;;18.10;53.10;;;;;;4998208;28;20159;-80
2022/02/19 01:25:47;;;;;;;1.85;1.23;;;18.00;52.30;;;;;;4998100;28;20162;-80
2022/02/19 01:28:13;;;;;;;1.50;0.95;;;18.00;52.30;;;;;;4997818;28;20227;-80
2022/02/19 01:30:40;;;;;;;1.80;1.20;;;18.10;52.40;;;;;;4998046;28;20667;-80
2022/02/19 01:33:08;;;;;;;1.30;1.10;;;18.00;52.40;;;;;;4997384;28;20262;-80
2022/02/19 01:35:37;;;;;;;1.98;1.00;;;18.00;52.30;;;;;;4980997;28;20183;-80
2022/02/19 01:38:04;;;;;;;1.67;0.90;;;18.10;52.30;;;;;;4981074;28;20582;-80
2022/02/19 01:40:32;;;;;;;2.55;1.30;;;18.00;52.30;;;;;;4980851;28;20183;-79
2022/02/19 01:42:59;;;;;;;2.60;1.23;;;18.00;52.40;;;;;;4980881;28;20274;-80
2022/02/19 01:45:25;;;;;;;0.80;0.80;;;17.90;52.70;;;;;;4980806;28;20234;-80
2022/02/19 01:47:52;;;;;;;1.80;1.00;;;18.10;53.10;;;;;;4981587;28;20577;-80
2022/02/19 01:50:19;;;;;;;1.70;1.02;;;18.00;52.60;;;;;;4980529;28;20249;-80
2022/02/19 01:52:45;;;;;;;1.42;1.00;;;18.00;52.60;;;;;;4996641;28;20187;-80
2022/02/19 01:55:11;;;;;;;2.30;1.00;;;18.00;52.70;;;;;;4980379;28;20671;-80
2022/02/19 01:57:38;;;;;;;1.92;1.02;;;18.00;52.50;;;;;;4997572;28;20194;-81
2022/02/19 02:00:06;;;;;;;1.20;0.80;;;18.00;52.70;;;;;;4996865;28;20190;-80
2022/02/19 02:02:33;;;;;;;1.70;1.00;;;18.00;52.70;;;;;;4981494;28;20164;-81
2022/02/19 02:05:00;;;;;;;1.30;0.95;;;18.00;52.50;;;;;;4980255;28;20183;-80
2022/02/19 02:07:27;;;;;;;1.50;0.90;;;18.00;52.70;;;;;;4996473;28;20278;-80
2022/02/19 02:09:54;;;;;;;1.35;0.90;;;18.00;52.70;;;;;;4980375;28;20238;-80
2022/02/19 02:12:20;;;;;;;1.60;1.20;;;18.00;52.90;;;;;;4996617;28;20195;-80
2022/02/19 02:14:47;;;;;;;1.30;1.17;;;17.90;52.90;;;;;;4996761;28;20184;-80
2022/02/19 02:17:13;;;;;;;1.48;0.95;;;17.90;52.80;;;;;;4996484;28;20199;-80
2022/02/19 02:19:39;;;;;;;2.90;1.10;;;17.90;52.90;;;;;;4997026;28;20163;-80
2022/02/19 02:22:06;;;;;;;1.08;0.93;;;17.90;53.50;;;;;;4997051;28;20158;-80
2022/02/19 02:24:32;;;;;;;1.40;1.00;;;17.90;52.90;;;;;;4997233;28;20159;-80
2022/02/19 02:26:58;;;;;;;2.50;0.93;;;17.80;52.70;;;;;;4980465;28;20186;-81
2022/02/19 02:29:24;;;;;;;1.88;1.23;;;17.90;52.90;;;;;;4980962;28;20175;-80
2022/02/19 02:31:49;;;;;;;1.00;0.82;;;17.90;53.00;;;;;;4980579;28;20171;-80
2022/02/19 02:34:15;;;;;;;1.33;1.13;;;17.90;52.60;;;;;;4996570;28;20191;-80
2022/02/19 02:36:40;;;;;;;1.70;1.00;;;17.90;53.00;;;;;;4996888;28;20198;-80
2022/02/19 02:39:06;;;;;;;1.23;0.88;;;17.80;53.10;;;;;;4997113;28;20155;-80
2022/02/19 02:41:32;;;;;;;2.33;1.00;;;17.90;53.00;;;;;;4980943;28;20191;-81
2022/02/19 02:43:58;;;;;;;1.70;1.00;;;17.90;53.20;;;;;;5014486;28;20218;-80
2022/02/19 02:46:24;;;;;;;2.28;1.27;;;17.90;53.20;;;;;;4996601;28;20158;-80
2022/02/19 02:48:50;;;;;;;1.27;1.00;;;17.90;52.70;;;;;;4980328;28;20171;-80
2022/02/19 02:51:16;;;;;;;1.70;1.10;;;17.90;53.20;;;;;;4996392;28;20159;-80
2022/02/19 02:53:42;;;;;;;2.25;1.00;;;17.90;53.30;;;;;;4980132;28;20618;-81
2022/02/19 02:56:08;;;;;;;1.63;1.10;;;17.90;53.10;;;;;;4996707;28;20163;-80
2022/02/19 02:58:35;;;;;;;1.88;1.17;;;17.90;53.20;;;;;;5013803;28;20325;-80
2022/02/19 03:01:01;;;;;;;1.13;0.80;;;17.80;53.30;;;;;;4996302;28;20596;-81
2022/02/19 03:03:27;;;;;;;1.95;1.20;;;17.90;53.00;;;;;;4980205;28;20626;-80
2022/02/19 03:05:53;;;;;;;1.48;1.10;;;17.90;53.20;;;;;;4980100;28;20537;-80
2022/02/19 03:08:18;;;;;;;2.78;1.27;;;17.90;53.10;;;;;;4996741;28;20626;-80
2022/02/19 03:10:44;;;;;;;1.38;1.20;;;17.90;52.90;;;;;;5013853;28;20314;-80
2022/02/19 03:13:10;;;;;;;1.27;0.90;;;17.90;53.10;;;;;;4996340;28;20159;-80
2022/02/19 03:15:37;;;;;;;0.95;0.85;;;17.90;53.30;;;;;;4996242;28;20155;-80
2022/02/19 03:18:02;;;;;;;1.52;1.10;;;17.90;53.10;;;;;;4995896;28;20191;-80
2022/02/19 03:20:28;;;;;;;1.70;1.00;;;17.80;53.30;;;;;;4980381;28;20168;-80
2022/02/19 03:22:54;;;;;;;1.25;1.00;;;17.90;53.10;;;;;;4996146;28;20167;-80
2022/02/19 03:25:20;;;;;;;1.63;0.98;;;17.90;53.00;;;;;;4996249;28;20156;-80
2022/02/19 03:27:46;;;;;;;1.70;1.10;;;17.90;53.10;;;;;;4979883;28;20314;-80
2022/02/19 03:30:12;;;;;;;2.10;1.27;;;17.90;53.30;;;;;;4996241;28;20181;-80
2022/02/19 03:32:38;;;;;;;1.48;1.10;;;17.80;53.20;;;;;;4979548;28;20179;-81
2022/02/19 03:35:05;;;;;;;1.25;1.02;;;17.80;53.10;;;;;;4995930;28;20167;-80
2022/02/19 03:37:33;;;;;;;1.63;0.90;;;17.80;53.10;;;;;;4995684;28;20599;-80
2022/02/19 03:39:59;;;;;;;1.10;1.00;;;17.80;53.40;;;;;;4979989;28;20167;-80
2022/02/19 03:42:25;;;;;;;1.38;1.00;;;17.90;53.30;;;;;;4979736;28;20163;-80
2022/02/19 03:44:50;;;;;;;1.55;1.05;;;17.90;53.30;;;;;;4978553;28;20170;-80
2022/02/19 03:47:16;;;;;;;1.30;1.00;;;17.80;53.50;;;;;;4979688;28;20179;-80
2022/02/19 03:49:41;;;;;;;1.40;1.08;;;17.80;53.10;;;;;;4995714;28;20214;-80
2022/02/19 03:52:07;;;;;;;1.15;0.90;;;17.80;53.40;;;;;;4995810;28;20221;-80
2022/02/19 03:54:33;;;;;;;2.20;1.20;;;17.90;53.00;;;;;;4979597;28;20255;-81
2022/02/19 03:56:58;;;;;;;1.90;1.10;;;17.90;53.20;;;;;;4995682;28;20175;-80
2022/02/19 03:59:24;;;;;;;1.67;0.93;;;17.90;53.50;;;;;;4979444;28;20203;-80
2022/02/19 04:01:49;;;;;;;1.00;0.90;;;17.90;53.20;;;;;;4995885;28;20198;-80
2022/02/19 04:04:15;;;;;;;1.42;0.90;;;17.80;53.20;;;;;;4995667;28;20163;-80
2022/02/19 04:06:41;;;;;;;1.65;1.00;;;17.90;53.50;;;;;;4996290;28;20156;-80
2022/02/19 04:09:06;;;;;;;1.55;1.00;;;17.80;53.60;;;;;;4995548;28;20796;-80
2022/02/19 04:11:32;;;;;;;1.70;1.15;;;17.80;53.70;;;;;;4995596;28;20223;-81
2022/02/19 04:13:58;;;;;;;0.95;0.85;;;17.80;53.30;;;;;;4995812;28;20206;-80
2022/02/19 04:16:24;;;;;;;2.28;1.08;;;17.90;53.40;;;;;;4995495;28;20155;-80
2022/02/19 04:18:50;;;;;;;1.50;1.00;;;17.80;53.20;;;;;;4995427;28;20646;-80
2022/02/19 04:21:15;;;;;;;1.27;1.17;;;17.80;53.40;;;;;;4979037;28;20174;-80
2022/02/19 04:23:41;;;;;;;1.48;1.00;;;17.80;53.50;;;;;;4995414;28;20155;-80
2022/02/19 04:26:07;;;;;;;1.13;0.90;;;17.80;53.30;;;;;;4979662;28;20230;-80
2022/02/19 04:28:32;;;;;;;1.70;1.02;;;17.80;53.50;;;;;;4995305;28;20219;-80
2022/02/19 04:30:58;;;;;;;1.33;1.10;;;17.80;53.30;;;;;;4995441;28;20164;-80
2022/02/19 04:33:24;;;;;;;1.88;1.20;;;17.80;53.40;;;;;;4979068;28;20160;-80
2022/02/19 04:35:49;;;;;;;1.13;0.88;;;17.80;53.50;;;;;;4995577;28;20250;-80
2022/02/19 04:38:15;;;;;;;1.27;1.00;;;17.80;53.40;;;;;;4979073;28;20191;-80
2022/02/19 04:40:42;;;;;;;1.77;1.00;;;17.80;53.30;;;;;;4995327;28;20152;-80
2022/02/19 04:43:08;;;;;;;1.80;1.25;;;17.70;53.60;;;;;;4995701;28;20179;-80
2022/02/19 04:45:35;;;;;;;1.42;1.05;;;17.80;53.50;;;;;;4995128;28;20159;-80
2022/02/19 04:48:01;;;;;;;1.58;1.00;;;17.70;53.30;;;;;;4995207;28;20209;-80
2022/02/19 04:50:26;;;;;;;1.33;0.75;;;17.80;53.70;;;;;;4979018;28;20254;-80
2022/02/19 04:52:52;;;;;;;2.90;1.33;;;17.80;53.30;;;;;;4995134;28;20168;-80
2022/02/19 04:55:18;;;;;;;1.63;1.10;;;17.80;53.50;;;;;;4995176;28;20164;-80
2022/02/19 04:57:44;;;;;;;1.13;1.00;;;17.80;53.70;;;;;;4998062;28;20198;-80
2022/02/19 05:00:14;;;;;;;1.10;1.00;;;17.80;53.30;;;;;;4982398;28;20164;-80
2022/02/19 05:02:40;;;;;;;1.00;0.90;;;17.80;53.50;;;;;;4997986;28;20183;-80
2022/02/19 05:05:06;;;;;;;1.52;1.00;;;17.80;53.60;;;;;;4998612;28;20677;-80
2022/02/19 05:07:32;;;;;;;1.23;0.90;;;17.80;53.80;;;;;;4982150;28;20168;-81
2022/02/19 05:09:57;;;;;;;1.52;0.90;;;17.80;53.60;;;;;;4998490;28;20258;-80
2022/02/19 05:12:24;;;;;;;1.45;0.80;;;17.80;53.30;;;;;;4998401;28;20160;-81
2022/02/19 05:14:51;;;;;;;1.55;0.90;;;17.80;53.70;;;;;;4949223;28;20550;-80
2022/02/19 05:17:19;;;;;;;1.75;1.13;;;17.80;53.40;;;;;;4981382;28;20223;-81
2022/02/19 05:19:46;;;;;;;1.90;1.25;;;17.80;53.60;;;;;;4997877;28;20191;-80
2022/02/19 05:22:11;;;;;;;2.05;1.00;;;17.80;53.50;;;;;;4997312;28;20403;-80
2022/02/19 05:24:38;;;;;;;1.25;1.05;;;17.80;53.70;;;;;;4998276;28;20247;-80
2022/02/19 05:27:04;;;;;;;1.80;0.90;;;17.80;53.70;;;;;;4980494;28;20207;-80
2022/02/19 05:29:29;;;;;;;4.05;1.10;;;17.80;53.80;;;;;;4998103;28;20576;-81
2022/02/19 05:31:56;;;;;;;2.10;1.10;;;17.80;53.80;;;;;;4998151;28;20164;-81
2022/02/19 05:34:24;;;;;;;1.63;1.00;;;17.80;53.90;;;;;;4997216;28;20198;-80
2022/02/19 05:36:51;;;;;;;1.42;0.90;;;17.80;53.60;;;;;;4997403;28;20188;-80
2022/02/19 05:39:19;;;;;;;0.98;0.70;;;17.80;53.70;;;;;;4997300;28;20183;-81
2022/02/19 05:41:46;;;;;;;1.13;0.93;;;17.80;53.60;;;;;;4980805;28;20181;-81
2022/02/19 05:44:13;;;;;;;1.58;0.90;;;17.80;53.60;;;;;;4961728;28;20184;-80
2022/02/19 05:46:40;;;;;;;2.38;1.00;;;17.80;53.40;;;;;;4993749;28;20262;-80
2022/02/19 05:49:07;;;;;;;1.50;1.00;;;17.80;53.70;;;;;;4996531;28;20194;-81
2022/02/19 05:51:34;;;;;;;1.02;0.90;;;17.90;53.40;;;;;;4997008;28;20654;-80
2022/02/19 05:54:01;;;;;;;1.25;0.93;;;17.80;53.60;;;;;;4980487;28;20270;-81
2022/02/19 05:56:28;;;;;;;2.42;1.20;;;17.80;53.50;;;;;;4996835;28;20249;-80
2022/02/19 05:58:55;;;;;;;1.02;0.90;;;17.70;53.70;;;;;;4996549;28;20238;-81
2022/02/19 06:01:22;;;;;;;1.10;0.90;;;17.70;53.80;;;;;;4996474;28;20556;-80
2022/02/19 06:03:49;;;;;;;1.35;1.10;;;17.80;53.70;;;;;;4980460;28;20184;-81
2022/02/19 06:06:15;;;;;;;1.58;1.23;;;17.80;53.90;;;;;;4980515;28;20195;-81
2022/02/19 06:08:42;;;;;;;1.65;1.00;;;17.70;53.80;;;;;;4996212;28;20194;-80
2022/02/19 06:11:09;;;;;;;1.45;1.05;;;17.70;54.10;;;;;;4980270;28;20187;-81
2022/02/19 06:13:36;;;;;;;1.25;0.90;;;17.70;54.20;;;;;;4980209;28;20549;-81
2022/02/19 06:16:01;;;;;;;2.17;1.10;;;17.70;54.00;;;;;;4981002;28;20222;-81
2022/02/19 06:18:27;;;;;;;1.40;0.85;;;17.70;54.00;;;;;;4997189;28;20241;-81
2022/02/19 06:20:53;;;;;;;1.73;0.80;;;17.80;53.80;;;;;;4980771;28;20163;-81
2022/02/19 06:23:19;;;;;;;0.80;0.80;;;17.80;54.00;;;;;;4981471;28;20178;-81
2022/02/19 06:25:45;;;;;;;1.20;1.10;;;17.70;54.10;;;;;;4997046;28;20167;-81
2022/02/19 06:28:11;;;;;;;1.05;0.80;;;17.80;53.60;;;;;;4996874;28;20273;-81
2022/02/19 06:30:36;;;;;;;0.90;0.80;;;17.70;53.80;;;;;;4997106;28;20226;-80
2022/02/19 06:33:02;;;;;;;2.00;0.95;;;17.80;54.10;;;;;;4997304;28;20163;-81
2022/02/19 06:35:28;;;;;;;1.75;0.80;;;17.80;54.10;;;;;;4996971;28;20665;-81
2022/02/19 06:37:54;;;;;;;1.55;1.00;;;17.70;53.70;;;;;;4980403;28;20191;-81
2022/02/19 06:40:19;;;;;;;1.00;0.80;;;17.70;54.10;;;;;;4997105;28;20159;-82
2022/02/19 06:42:46;;;;;;;1.13;0.98;;;17.70;53.90;;;;;;4980363;28;20262;-81
2022/02/19 06:45:13;;;;;;;1.83;1.20;;;17.80;54.10;;;;;;4995790;28;20238;-81
2022/02/19 06:47:40;;;;;;;1.08;0.77;;;17.70;53.90;;;;;;4979441;28;20214;-81
2022/02/19 06:50:07;;;;;;;1.02;0.80;;;17.80;54.10;;;;;;4979577;28;20214;-81
2022/02/19 06:52:34;;;;;;;2.47;1.00;;;17.80;54.10;;;;;;4980406;28;20191;-81
2022/02/19 06:55:01;;;;;;;1.20;0.98;;;17.70;54.20;;;;;;4963699;28;20183;-81
2022/02/19 06:57:27;;;;;;;1.13;0.93;;;17.70;54.40;;;;;;4947562;28;20215;-81
2022/02/19 06:59:52;;;;;;;1.38;0.85;;;17.80;54.10;;;;;;4996559;28;20230;-80
2022/02/19 07:02:18;;;;;;;1.20;1.10;;;17.70;54.10;;;;;;4980581;28;20571;-80
2022/02/19 07:04:45;;;;;;;1.10;0.90;;;17.70;53.70;;;;;;4996341;28;20737;-81
2022/02/19 07:07:12;;;;;;;1.73;0.98;;;17.80;54.10;;;;;;4996486;28;20251;-80
2022/02/19 07:09:38;;;;;;;0.98;0.88;;;17.80;53.80;;;;;;4964267;28;20183;-81
2022/02/19 07:12:04;;;;;;;1.50;1.02;;;17.80;53.90;;;;;;5013731;28;20576;-81
2022/02/19 07:14:29;;;;;;;1.75;1.10;;;17.80;54.20;;;;;;4980299;28;20190;-83
2022/02/19 07:17:02;;;;;;;1.20;0.65;;;17.80;54.10;;;;;;4963987;28;20610;-81
2022/02/19 07:19:27;;;;;;;1.10;1.00;;;17.80;54.00;;;;;;4980897;28;20167;-81
2022/02/19 07:21:53;;;;;;;1.30;1.00;;;17.80;53.80;;;;;;4964550;28;20521;-81
2022/02/19 07:24:21;;;;;;;1.33;1.00;;;17.80;53.90;;;;;;4979836;28;20159;-81
2022/02/19 07:26:48;;;;;;;0.93;0.80;;;17.80;54.10;;;;;;4963114;28;20237;-81
2022/02/19 07:29:16;;;;;;;1.35;0.90;;;17.80;54.30;;;;;;4947073;28;20227;-81
2022/02/19 07:31:43;;;;;;;1.25;1.00;;;17.80;54.10;;;;;;4946959;28;20254;-81
2022/02/19 07:34:10;;;;;;;1.02;0.93;;;17.80;54.20;;;;;;4978965;28;20188;-80
2022/02/19 07:36:38;;;;;;;1.35;0.98;;;17.80;54.20;;;;;;4979119;28;20218;-81
2022/02/19 07:39:08;;;;;;;1.20;0.80;;;17.80;54.00;;;;;;4963121;28;20582;-81
2022/02/19 07:41:35;;;;;;;1.05;0.90;;;17.80;54.10;;;;;;4947702;28;20539;-82
2022/02/19 07:44:02;;;;;;;2.22;1.00;;;17.80;53.90;;;;;;4946693;28;20191;-81
2022/02/19 07:46:29;;;;;;;1.10;0.77;;;17.80;53.70;;;;;;4946165;28;20191;-81
2022/02/19 07:48:56;;;;;;;1.73;0.85;;;17.90;53.80;;;;;;4946130;28;20588;-81
2022/02/19 07:59:26;;;;;;;1.38;1.02;;;18.00;53.10;;;;;;4998509;28;20174;-82
2022/02/19 08:01:51;;;;;;;4.93;1.30;;;18.10;52.90;;;;;;4994824;28;20151;-82
2022/02/19 08:04:19;;;;;;;3.20;1.10;;;18.00;52.80;;;;;;4995455;28;20159;-82
2022/02/19 08:06:45;;;;;;;1.48;0.80;;;18.10;52.60;;;;;;5012383;28;20158;-82
2022/02/19 08:09:11;;;;;;;4.53;0.93;;;18.20;52.60;;;;;;4980753;28;20163;-81
2022/02/19 08:11:38;;;;;;;1.15;0.73;;;18.20;52.10;;;;;;4980199;28;20225;-82
2022/02/19 08:14:04;;;;;;;1.42;0.80;;;18.30;52.30;;;;;;4997511;28;20584;-83
2022/02/19 08:16:29;;;;;;;1.15;0.90;;;18.40;52.10;;;;;;4996408;28;20631;-81
2022/02/19 08:18:57;;;;;;;1.80;0.82;;;18.30;52.80;;;;;;4997085;28;20190;-83
2022/02/19 08:21:24;;;;;;;1.80;0.90;;;18.30;52.60;;;;;;4996945;28;20536;-81
2022/02/19 08:23:50;;;;;;;5.47;0.80;;;18.40;52.10;;;;;;4965271;28;20164;-82
2022/02/19 08:26:24;;;;;;;2.15;1.27;;;18.40;51.90;;;;;;4997805;28;20160;-82
2022/02/19 08:28:51;;;;;;;2.30;1.00;;;18.30;51.70;;;;;;4981365;28;20238;-81
2022/02/19 08:31:18;;;;;;;1.20;0.80;;;18.40;51.50;;;;;;4981744;28;20191;-82
2022/02/19 08:33:43;;;;;;;1.52;1.00;;;18.50;51.70;;;;;;5019021;28;20236;-82
2022/02/19 08:36:10;;;;;;;1.60;0.95;;;18.50;51.60;;;;;;5018097;28;20160;-82
2022/02/19 08:38:35;;;;;;;2.33;0.90;;;18.50;51.50;;;;;;5000367;28;20199;-81
2022/02/19 08:41:05;;;;;;;2.53;0.98;;;18.50;51.60;;;;;;5001185;28;20156;-81
2022/02/19 08:43:31;;;;;;;1.25;0.80;;;18.50;51.50;;;;;;4968120;28;20194;-82
2022/02/19 08:45:57;;;;;;;2.25;0.80;;;18.50;51.40;;;;;;4983617;28;20526;-82
2022/02/19 08:48:23;;;;;;;1.30;0.82;;;18.50;51.00;;;;;;5017618;28;20163;-81
2022/02/19 08:50:49;;;;;;;0.93;0.70;;;18.60;50.70;;;;;;4983586;28;20178;-83
2022/02/19 08:53:16;;;;;;;1.23;0.82;;;18.60;51.20;;;;;;5000853;28;20167;-82
2022/02/19 08:55:46;;;;;;;3.95;0.80;;;18.60;51.50;;;;;;4983549;28;20186;-81
2022/02/19 08:58:15;;;;;;;1.48;0.98;;;18.60;51.40;;;;;;4974079;28;20296;-81
2022/02/19 09:00:41;;;;;;;2.92;1.02;;;18.60;51.50;;;;;;4982951;28;20167;-82
2022/02/19 09:03:07;;;;;;;3.50;1.00;;;18.70;51.00;;;;;;4999150;28;20156;-81
2022/02/19 09:05:33;;;;;;;4.30;0.95;;;18.70;51.30;;;;;;4998440;28;20532;-81
2022/02/19 09:07:59;;;;;;;6.75;1.15;;;18.70;51.30;;;;;;4997970;28;20308;-82
2022/02/19 09:10:25;;;;;;;3.85;1.00;;;18.80;51.20;;;;;;4981074;28;20168;-79
2022/02/19 09:12:54;;;;;;;3.38;0.80;;;18.80;50.90;;;;;;4997470;28;20163;-79
2022/02/19 09:15:22;;;;;;;2.78;1.00;;;18.90;51.00;;;;;;4965067;28;20195;-79
2022/02/19 09:17:50;;;;;;;2.28;1.00;;;18.80;51.10;;;;;;4980515;28;20505;-79
2022/02/19 09:20:19;;;;;;;2.33;0.90;;;18.80;50.90;;;;;;4948606;28;20207;-79
2022/02/19 09:22:46;;;;;;;3.22;0.82;;;18.90;51.00;;;;;;4964361;28;20650;-80
2022/02/19 09:25:13;;;;;;;2.90;1.20;;;18.80;50.90;;;;;;4964989;28;20183;-78
2022/02/19 09:27:39;;;;;;;2.08;0.95;;;18.90;51.00;;;;;;4980585;28;20245;-79
2022/02/19 09:30:06;;;;;;;5.40;1.13;;;18.90;51.00;;;;;;4965706;28;20243;-79
2022/02/19 09:32:32;;;;;;;2.58;0.98;;;18.90;50.80;;;;;;5015402;28;20156;-80
2022/02/19 09:34:58;;;;;;;0.90;0.80;;;18.90;50.70;;;;;;4965238;28;20183;-79
2022/02/19 09:37:27;;;;;;;5.22;1.10;;;18.90;50.90;;;;;;4997528;28;20308;-79
2022/02/19 09:39:54;;;;;;;4.10;0.88;;;18.90;50.50;;;;;;4981016;28;20179;-79
2022/02/19 09:42:20;;;;;;;3.80;0.90;;;18.90;50.40;;;;;;4980523;28;20160;-80
2022/02/19 09:44:48;;;;;;;3.05;1.15;;;19.00;50.60;;;;;;5014191;28;20238;-79
2022/02/19 09:47:14;;;;;;;2.47;0.88;;;18.90;50.70;;;;;;4996548;28;20159;-81
2022/02/19 09:49:41;;;;;;;3.88;1.00;;;19.00;50.40;;;;;;4996711;28;20194;-81
2022/02/19 09:52:07;;;;;;;3.67;1.15;;;18.90;50.70;;;;;;4997215;28;20155;-81
2022/02/19 09:54:33;;;;;;;1.52;1.10;;;18.90;50.90;;;;;;5015051;28;20249;-80
2022/02/19 09:56:59;;;;;;;2.30;0.90;;;18.90;50.90;;;;;;4980578;28;20248;-79
2022/02/19 09:59:29;;;;;;;4.10;0.90;;;19.00;51.00;;;;;;4997362;28;20163;-81
2022/02/19 10:02:04;;;;;;;1.80;0.80;;;19.00;50.80;;;;;;4949664;28;20527;-82
2022/02/19 10:04:29;;;;;;;3.20;1.00;;;19.00;51.10;;;;;;4995658;28;20169;-81
2022/02/19 10:06:58;;;;;;;4.45;1.08;;;19.00;51.20;;;;;;5016814;28;20155;-81
2022/02/19 10:09:24;;;;;;;7.68;1.13;;;19.10;51.50;;;;;;4980246;28;20589;-80
2022/02/19 10:11:50;;;;;;;6.88;1.20;;;19.10;51.50;;;;;;4999272;28;20172;-80
2022/02/19 10:14:31;;;;;;;6.68;1.00;;;19.10;51.10;;;;;;4997476;28;20163;-81
2022/02/19 10:17:17;;;;;;;4.82;1.35;;;19.10;51.20;;;;;;4998536;28;20167;-80
2022/02/19 10:19:54;;;;;;;2.13;1.00;;;19.10;50.90;;;;;;5015738;28;20206;-79
2022/02/19 10:22:36;;;;;;;5.85;0.90;;;19.10;51.00;;;;;;5015369;28;20171;-80
2022/02/19 10:25:06;;;;;;;6.70;0.90;;;19.10;51.40;;;;;;4948923;28;20269;-80
2022/02/19 10:27:48;;;;;;;3.25;0.80;;;19.10;51.60;;;;;;4979993;28;20223;-79
2022/02/19 10:30:17;;;;;;;4.10;1.08;;;19.10;51.50;;;;;;4995029;28;20195;-79
2022/02/19 10:32:52;;;;;;;5.97;1.33;;;19.10;51.40;;;;;;4978873;28;20171;-80
2022/02/19 10:35:30;;;;;;;5.70;1.20;;;19.10;51.40;;;;;;4978436;28;20187;-79
2022/02/19 10:38:02;;;;;;;5.90;1.17;;;19.10;51.30;;;;;;4945971;28;20608;-80
2022/02/19 10:40:34;;;;;;;5.72;1.30;;;19.10;51.80;;;;;;4945614;28;20207;-79
2022/02/19 10:43:03;;;;;;;3.42;1.20;;;19.10;51.70;;;;;;4993292;28;20184;-82
2022/02/19 10:45:29;;;;;;;5.63;1.23;;;19.00;51.70;;;;;;4993625;28;20286;-79
2022/02/19 10:48:11;;;;;;;8.90;1.45;;;19.10;51.70;;;;;;4977732;28;20218;-79
2022/02/19 10:50:37;;;;;;;5.45;1.27;;;19.10;51.70;;;;;;4981834;28;20528;-80
2022/02/19 10:53:05;;;;;;;3.53;1.40;;;19.10;52.20;;;;;;5014383;28;20170;-80
2022/02/19 10:55:32;;;;;;;5.18;1.00;;;19.10;52.10;;;;;;4981093;28;20642;-80
2022/02/19 10:57:59;;;;;;;4.80;1.30;;;19.10;52.30;;;;;;4966457;28;20298;-79
2022/02/19 11:00:25;;;;;;;4.05;1.10;;;19.10;52.20;;;;;;4997865;28;20144;-80
2022/02/19 11:02:51;;;;;;;14.07;1.25;;;19.10;52.60;;;;;;4998077;28;20175;-80
2022/02/19 11:05:19;;;;;;;6.18;1.33;;;19.10;52.40;;;;;;5015735;28;20673;-81
2022/02/19 11:07:47;;;;;;;8.98;1.08;;;19.10;52.30;;;;;;4964353;28;20187;-80
2022/02/19 11:10:15;;;;;;;5.22;1.13;;;19.10;52.60;;;;;;4948479;28;20198;-81
2022/02/19 11:12:42;;;;;;;8.93;1.23;;;19.20;52.10;;;;;;4980253;28;20187;-80
2022/02/19 11:15:13;;;;;;;4.88;1.13;;;19.20;51.70;;;;;;4964338;28;20209;-81
2022/02/19 11:17:40;;;;;;;6.47;1.40;;;19.20;52.50;;;;;;4963990;28;20215;-80
2022/02/19 11:20:08;;;;;;;5.63;1.23;;;19.20;52.30;;;;;;4963067;28;20195;-80
2022/02/19 11:22:35;;;;;;;4.90;1.17;;;19.20;52.20;;;;;;4996116;28;20202;-80
2022/02/19 11:25:03;;;;;;;3.75;1.13;;;19.20;52.10;;;;;;5013910;28;20188;-79
2022/02/19 11:27:29;;;;;;;5.85;1.13;;;19.20;52.00;;;;;;4995432;28;20314;-80
2022/02/19 11:29:57;;;;;;;5.45;1.25;;;19.20;52.00;;;;;;4960991;28;20168;-80
2022/02/19 11:32:24;;;;;;;7.93;1.77;;;19.20;52.30;;;;;;4976402;28;20242;-80
2022/02/19 11:34:51;;;;;;;7.18;1.73;;;19.20;52.30;;;;;;4979246;28;20175;-80
2022/02/19 11:37:20;;;;;;;11.70;2.35;;;19.10;52.50;;;;;;5016073;28;20206;-81
2022/02/19 11:40:10;;;;;;;6.22;1.30;;;19.20;52.60;;;;;;4978828;28;20298;-81
2022/02/19 11:42:43;;;;;;;6.07;1.70;;;19.20;52.40;;;;;;4979482;28;20203;-81
2022/02/19 11:45:26;;;;;;;10.13;1.55;;;19.20;52.10;;;;;;4952141;28;20265;-81
2022/02/19 11:47:55;;;;;;;4.32;1.30;;;19.20;51.90;;;;;;4982771;28;20183;-81
2022/02/19 11:50:24;;;;;;;6.32;1.27;;;19.10;52.40;;;;;;4997106;28;20626;-81
2022/02/19 11:53:19;;;;;;;4.55;1.35;;;19.20;51.80;;;;;;4981361;28;20188;-80
2022/02/19 11:55:45;;;;;;;8.63;1.20;;;19.20;51.60;;;;;;4977276;28;20543;-81
2022/02/19 11:58:14;;;;;;;6.80;1.38;;;19.10;51.40;;;;;;4998459;28;20194;-82
2022/02/19 12:00:56;;;;;;;5.05;1.20;;;19.20;51.50;;;;;;4999745;28;20176;-81
2022/02/19 12:03:23;;;;;;;4.35;1.25;;;19.20;51.60;;;;;;4979495;28;20239;-81
2022/02/19 12:06:24;;;;;;;5.90;1.60;;;19.20;52.10;;;;;;4979552;28;20174;-81
2022/02/19 12:09:11;;;;;;;4.45;1.05;;;19.20;51.80;;;;;;5004496;28;20171;-80
2022/02/19 12:11:57;;;;;;;2.03;1.05;;;19.20;51.60;;;;;;4988871;28;20152;-80
2022/02/19 12:14:47;;;;;;;4.35;1.05;;;19.20;52.00;;;;;;5019604;28;20171;-81
2022/02/19 12:17:15;;;;;;;3.92;1.05;;;19.10;51.60;;;;;;4971228;28;20187;-80
2022/02/19 12:19:58;;;;;;;3.95;1.30;;;19.20;51.80;;;;;;4973525;28;20160;-82
2022/02/19 12:22:29;;;;;;;7.15;1.15;;;19.20;52.80;;;;;;5021496;28;20164;-81
2022/02/19 12:24:55;;;;;;;7.25;1.50;;;19.20;52.90;;;;;;5005764;28;20152;-79
2022/02/19 12:27:21;;;;;;;2.75;1.30;;;19.30;52.50;;;;;;4986692;28;20230;-81
2022/02/19 12:29:51;;;;;;;3.00;0.98;;;19.30;51.40;;;;;;4968961;28;20171;-80
2022/02/19 12:32:19;;;;;;;5.05;1.30;;;19.20;51.80;;;;;;5019298;28;20582;-80
2022/02/19 12:34:54;;;;;;;3.50;1.20;;;19.20;51.60;;;;;;5002675;28;20190;-83
2022/02/19 12:37:21;;;;;;;4.72;1.00;;;19.20;51.70;;;;;;5001136;28;20226;-81
2022/02/19 12:39:49;;;;;;;4.53;1.45;;;19.30;51.90;;;;;;4998260;28;20222;-81
2022/02/19 12:42:17;;;;;;;5.93;1.42;;;19.30;51.40;;;;;;4998653;28;20159;-81
2022/02/19 12:44:43;;;;;;;3.25;1.30;;;19.30;50.90;;;;;;4998686;28;20160;-82
2022/02/19 12:47:09;;;;;;;4.93;1.10;;;19.40;50.90;;;;;;4982572;28;20176;-81
2022/02/19 12:49:35;;;;;;;3.08;1.25;;;19.30;50.50;;;;;;4985400;28;20167;-81
2022/02/19 12:52:01;;;;;;;4.25;1.15;;;19.40;50.20;;;;;;5016937;28;20168;-83
2022/02/19 12:54:44;;;;;;;3.85;1.15;;;19.40;50.90;;;;;;4967276;28;20214;-82